createdAt,value
2023-01-06T00:01:08.891Z,100.00
2023-01-06T00:03:36.022Z,100.00
2023-01-06T00:06:05.579Z,100.00
2023-01-06T00:08:36.082Z,100.00
2023-01-06T00:11:07.599Z,100.00
2023-01-06T00:13:34.439Z,100.00
2023-01-06T00:16:09.475Z,100.00
2023-01-06T00:18:36.449Z,100.00
2023-01-06T00:21:04.340Z,100.00
2023-01-06T00:23:31.700Z,100.00
2023-01-06T00:25:58.313Z,100.00
2023-01-06T00:28:25.317Z,100.00
2023-01-06T00:30:52.999Z,100.00
2023-01-06T00:33:20.104Z,100.00
2023-01-06T00:35:46.796Z,100.00
2023-01-06T00:38:13.520Z,100.00
2023-01-06T00:40:40.193Z,100.00
2023-01-06T00:43:06.842Z,100.00
2023-01-06T00:45:33.548Z,100.00
2023-01-06T00:48:00.217Z,100.00
2023-01-06T00:50:26.930Z,100.00
2023-01-06T00:52:53.995Z,100.00
2023-01-06T00:55:20.753Z,100.00
2023-01-06T00:57:47.457Z,100.00
2023-01-06T01:00:14.417Z,100.00
2023-01-06T01:02:41.209Z,100.00
2023-01-06T01:05:08.359Z,100.00
2023-01-06T01:07:35.837Z,100.00
2023-01-06T01:10:04.039Z,100.00
2023-01-06T01:12:30.725Z,100.00
2023-01-06T01:14:58.083Z,100.00
2023-01-06T01:17:28.962Z,100.00
2023-01-06T01:19:57.799Z,100.00
2023-01-06T01:22:27.041Z,100.00
2023-01-06T01:24:54.424Z,100.00
2023-01-06T01:27:21.145Z,100.00
2023-01-06T01:29:47.841Z,100.00
2023-01-06T01:32:14.590Z,100.00
2023-01-06T01:34:41.168Z,100.00
2023-01-06T01:37:07.803Z,100.00
2023-01-06T01:39:34.390Z,100.00
2023-01-06T01:42:01.014Z,100.00
2023-01-06T01:44:48.692Z,100.00
2023-01-06T01:47:37.515Z,100.00
2023-01-06T01:50:38.004Z,100.00
2023-01-06T01:53:11.336Z,100.00
2023-01-06T01:55:39.543Z,100.00
2023-01-06T01:58:12.366Z,100.00
2023-01-06T02:00:40.875Z,100.00
2023-01-06T02:03:07.672Z,100.00
2023-01-06T02:05:40.210Z,100.00
2023-01-06T02:08:21.498Z,100.00
2023-01-06T02:10:48.174Z,100.00
2023-01-06T02:13:14.883Z,100.00
2023-01-06T02:16:19.553Z,100.00
2023-01-06T02:18:59.588Z,100.00
2023-01-06T02:21:53.885Z,100.00
2023-01-06T02:24:48.482Z,100.00
2023-01-06T02:27:52.067Z,100.00
2023-01-06T02:31:00.343Z,100.00
2023-01-06T02:34:05.267Z,100.00
2023-01-06T02:36:45.766Z,100.00
2023-01-06T02:39:23.524Z,100.00
2023-01-06T02:42:01.486Z,100.00
2023-01-06T02:45:14.496Z,100.00
2023-01-06T02:48:15.621Z,100.00
2023-01-06T02:50:50.815Z,100.00
2023-01-06T02:53:25.458Z,100.00
2023-01-06T02:55:54.961Z,100.00
2023-01-06T02:58:28.746Z,100.00
2023-01-06T03:01:09.480Z,100.00
2023-01-06T03:03:39.962Z,100.00
2023-01-06T03:06:15.036Z,100.00
2023-01-06T03:08:45.228Z,100.00
2023-01-06T03:11:12.941Z,100.00
2023-01-06T03:13:46.860Z,100.00
2023-01-06T03:16:14.771Z,100.00
2023-01-06T03:18:43.476Z,100.00
2023-01-06T03:21:21.351Z,100.00
2023-01-06T03:23:48.451Z,100.00
2023-01-06T03:26:15.489Z,100.00
2023-01-06T03:28:44.261Z,100.00
2023-01-06T03:31:15.396Z,100.00
2023-01-06T03:34:10.118Z,100.00
2023-01-06T03:36:46.039Z,100.00
2023-01-06T03:39:18.926Z,100.00
2023-01-06T03:42:35.243Z,100.00
2023-01-06T03:45:20.769Z,100.00
2023-01-06T03:47:53.182Z,100.00
2023-01-06T03:50:28.748Z,100.00
2023-01-06T03:53:23.363Z,100.00
2023-01-06T03:56:03.978Z,100.00
2023-01-06T03:58:31.429Z,100.00
2023-01-06T04:00:59.177Z,100.00
2023-01-06T04:03:26.327Z,100.00
2023-01-06T04:05:54.507Z,100.00
2023-01-06T04:08:21.591Z,100.00
2023-01-06T04:10:49.168Z,100.00
2023-01-06T04:13:16.516Z,100.00
2023-01-06T04:15:43.315Z,100.00
2023-01-06T04:18:10.182Z,100.00
2023-01-06T04:20:39.659Z,100.00
2023-01-06T04:23:20.028Z,100.00
2023-01-06T04:25:46.927Z,100.00
2023-01-06T04:28:23.579Z,100.00
2023-01-06T04:30:51.993Z,100.00
2023-01-06T04:33:18.772Z,100.00
2023-01-06T04:35:48.095Z,100.00
2023-01-06T04:38:19.377Z,100.00
2023-01-06T04:40:46.025Z,100.00
2023-01-06T04:43:16.101Z,100.00
2023-01-06T04:45:43.827Z,100.00
2023-01-06T04:48:11.748Z,100.00
2023-01-06T04:50:38.874Z,100.00
2023-01-06T04:53:06.628Z,100.00
2023-01-06T04:55:33.884Z,100.00
2023-01-06T04:58:00.701Z,100.00
2023-01-06T05:00:27.482Z,100.00
2023-01-06T05:02:54.208Z,100.00
2023-01-06T05:05:20.816Z,100.00
2023-01-06T05:07:47.483Z,100.00
2023-01-06T05:10:14.115Z,100.00
2023-01-06T05:12:41.048Z,100.00
2023-01-06T05:15:11.515Z,100.00
2023-01-06T05:17:38.313Z,100.00
2023-01-06T05:20:05.589Z,100.00
2023-01-06T05:22:32.173Z,100.00
2023-01-06T05:24:58.850Z,100.00
2023-01-06T05:27:25.699Z,100.00
2023-01-06T05:29:52.437Z,100.00
2023-01-06T05:32:19.016Z,100.00
2023-01-06T05:34:45.767Z,100.00
2023-01-06T05:37:12.448Z,100.00
2023-01-06T05:39:39.116Z,100.00
2023-01-06T05:42:05.740Z,100.00
2023-01-06T05:44:32.339Z,100.00
2023-01-06T05:46:58.934Z,100.00
2023-01-06T05:49:25.803Z,100.00
2023-01-06T05:51:52.428Z,100.00
2023-01-06T05:54:19.061Z,100.00
2023-01-06T05:56:45.656Z,100.00
2023-01-06T05:59:12.363Z,100.00
2023-01-06T06:01:39.102Z,100.00
2023-01-06T06:04:05.962Z,100.00
2023-01-06T06:06:32.908Z,100.00
2023-01-06T06:08:59.637Z,100.00
2023-01-06T06:11:26.436Z,100.00
2023-01-06T06:13:55.112Z,100.00
2023-01-06T06:16:24.012Z,100.00
2023-01-06T06:18:52.974Z,100.00
2023-01-06T06:21:22.418Z,100.00
2023-01-06T06:23:49.522Z,100.00
2023-01-06T06:26:16.232Z,100.00
2023-01-06T06:28:43.072Z,100.00
2023-01-06T06:31:13.380Z,100.00
2023-01-06T06:33:40.711Z,100.00
2023-01-06T06:36:12.242Z,100.00
2023-01-06T06:38:39.257Z,100.00
2023-01-06T06:41:05.959Z,100.00
2023-01-06T06:43:33.659Z,100.00
2023-01-06T06:46:00.623Z,100.00
2023-01-06T06:48:30.079Z,100.00
2023-01-06T06:50:58.340Z,100.00
2023-01-06T06:53:25.390Z,100.00
2023-01-06T06:55:52.521Z,100.00
2023-01-06T06:58:19.134Z,100.00
2023-01-06T07:00:45.783Z,100.00
2023-01-06T07:03:12.508Z,100.00
2023-01-06T07:05:39.208Z,100.00
2023-01-06T07:08:05.855Z,100.00
2023-01-06T07:10:32.528Z,100.00
2023-01-06T07:12:59.183Z,100.00
2023-01-06T07:15:25.799Z,100.00
2023-01-06T07:17:52.482Z,100.00
2023-01-06T07:20:19.128Z,100.00
2023-01-06T07:22:45.769Z,100.00
2023-01-06T07:25:12.677Z,100.00
2023-01-06T07:27:39.297Z,97.74
2023-01-06T07:30:06.632Z,94.57
2023-01-06T07:32:33.258Z,93.07
2023-01-06T07:34:59.940Z,91.68
2023-01-06T07:37:26.573Z,89.77
2023-01-06T07:39:53.286Z,88.95
2023-01-06T07:42:19.954Z,89.15
2023-01-06T07:44:46.713Z,88.40
2023-01-06T07:47:14.159Z,87.53
2023-01-06T07:49:40.851Z,87.47
2023-01-06T07:52:07.569Z,86.65
2023-01-06T07:54:34.431Z,85.56
2023-01-06T07:57:01.089Z,84.04
2023-01-06T07:59:27.703Z,83.95
2023-01-06T08:01:54.401Z,81.88
2023-01-06T08:04:21.139Z,81.77
2023-01-06T08:06:47.819Z,82.28
2023-01-06T08:09:14.459Z,81.97
2023-01-06T08:11:41.021Z,80.39
2023-01-06T08:14:07.736Z,81.20
2023-01-06T08:16:34.299Z,81.46
2023-01-06T08:19:00.843Z,80.53
2023-01-06T08:21:27.477Z,80.04
2023-01-06T08:23:54.086Z,80.14
2023-01-06T08:26:20.754Z,79.85
2023-01-06T08:28:47.342Z,79.48
2023-01-06T08:31:16.452Z,79.91
2023-01-06T08:33:43.667Z,79.85
2023-01-06T08:36:14.285Z,79.32
2023-01-06T08:38:41.734Z,79.44
2023-01-06T08:41:09.022Z,80.11
2023-01-06T08:43:36.403Z,80.35
2023-01-06T08:46:06.280Z,80.56
2023-01-06T08:48:34.283Z,80.01
2023-01-06T08:51:12.446Z,80.17
2023-01-06T08:53:39.609Z,80.27
2023-01-06T08:56:16.122Z,80.08
2023-01-06T08:58:43.303Z,79.71
2023-01-06T09:01:21.231Z,79.89
2023-01-06T09:03:48.533Z,80.02
2023-01-06T09:06:17.118Z,80.20
2023-01-06T09:08:43.746Z,80.89
2023-01-06T09:11:12.066Z,81.31
2023-01-06T09:13:39.116Z,81.16
2023-01-06T09:16:07.362Z,82.40
2023-01-06T09:18:35.499Z,82.61
2023-01-06T09:21:03.283Z,81.98
2023-01-06T09:23:30.098Z,82.37
2023-01-06T09:25:58.069Z,83.50
2023-01-06T09:28:25.882Z,84.32
2023-01-06T09:30:52.765Z,84.00
2023-01-06T09:33:19.527Z,84.12
2023-01-06T09:35:46.819Z,84.49
2023-01-06T09:38:14.932Z,85.03
2023-01-06T09:40:58.123Z,85.08
2023-01-06T09:43:43.874Z,85.89
2023-01-06T09:46:14.952Z,86.75
2023-01-06T09:49:09.980Z,85.99
2023-01-06T09:51:37.883Z,86.31
2023-01-06T09:54:19.260Z,85.21
2023-01-06T09:56:53.711Z,84.97
2023-01-06T09:59:34.043Z,85.82
2023-01-06T10:02:03.034Z,84.30
2023-01-06T10:04:30.939Z,84.50
2023-01-06T10:07:16.090Z,84.12
2023-01-06T10:09:57.324Z,82.96
2023-01-06T10:12:45.777Z,83.36
2023-01-06T10:15:38.020Z,82.32
2023-01-06T10:18:17.458Z,82.66
2023-01-06T10:21:17.713Z,83.50
2023-01-06T10:24:01.073Z,82.53
2023-01-06T10:26:32.984Z,82.44
2023-01-06T10:29:14.920Z,82.51
2023-01-06T10:31:44.966Z,82.62
2023-01-06T10:34:25.930Z,81.26
2023-01-06T10:37:02.657Z,81.76
2023-01-06T10:39:31.762Z,81.66
2023-01-06T10:42:24.565Z,81.35
2023-01-06T10:44:51.227Z,81.20
2023-01-06T10:47:25.797Z,81.51
2023-01-06T10:49:52.516Z,80.85
2023-01-06T10:52:20.867Z,80.94
2023-01-06T10:54:49.337Z,80.83
2023-01-06T10:57:22.676Z,81.38
2023-01-06T11:00:14.161Z,81.40
2023-01-06T11:02:49.533Z,81.14
2023-01-06T11:05:20.103Z,79.77
2023-01-06T11:08:07.832Z,80.03
2023-01-06T11:10:42.847Z,78.86
2023-01-06T11:13:23.083Z,78.42
2023-01-06T11:15:50.137Z,77.15
2023-01-06T11:18:21.787Z,77.19
2023-01-06T11:21:12.827Z,77.14
2023-01-06T11:23:42.010Z,77.07
2023-01-06T11:26:11.631Z,76.94
2023-01-06T11:28:39.766Z,76.82
2023-01-06T11:31:20.009Z,76.76
2023-01-06T11:33:53.658Z,77.23
2023-01-06T11:36:23.597Z,75.45
2023-01-06T11:38:56.166Z,74.64
2023-01-06T11:41:31.043Z,75.66
2023-01-06T11:44:17.284Z,75.30
2023-01-06T11:46:55.494Z,75.98
2023-01-06T11:49:31.028Z,76.46
2023-01-06T11:52:07.293Z,75.90
2023-01-06T11:54:33.881Z,75.73
2023-01-06T11:57:17.391Z,76.28
2023-01-06T11:59:54.317Z,75.73
2023-01-06T12:02:32.664Z,75.38
2023-01-06T12:05:05.766Z,74.63
2023-01-06T12:07:44.123Z,74.67
2023-01-06T12:10:17.530Z,74.61
2023-01-06T12:12:44.766Z,74.01
2023-01-06T12:15:14.580Z,73.87
2023-01-06T12:17:52.400Z,73.87
2023-01-06T12:20:38.457Z,74.48
2023-01-06T12:23:10.783Z,73.62
2023-01-06T12:25:43.200Z,73.48
2023-01-06T12:28:18.182Z,73.20
2023-01-06T12:31:15.904Z,72.99
2023-01-06T12:34:10.108Z,73.53
2023-01-06T12:36:55.218Z,73.67
2023-01-06T12:39:42.805Z,73.92
2023-01-06T12:42:27.464Z,73.83
2023-01-06T12:45:03.362Z,73.71
2023-01-06T12:47:43.076Z,73.02
2023-01-06T12:50:40.335Z,73.80
2023-01-06T12:53:20.223Z,73.76
2023-01-06T12:56:06.981Z,74.10
2023-01-06T12:59:25.406Z,74.30
2023-01-06T13:02:29.951Z,74.58
2023-01-06T13:05:33.257Z,74.86
2023-01-06T13:08:16.145Z,74.70
2023-01-06T13:10:58.020Z,74.57
2023-01-06T13:13:30.479Z,74.54
2023-01-06T13:16:05.170Z,74.83
2023-01-06T13:18:41.203Z,74.42
2023-01-06T13:21:11.280Z,74.28
2023-01-06T13:23:51.858Z,73.76
2023-01-06T13:26:40.531Z,74.28
2023-01-06T13:29:25.084Z,73.87
2023-01-06T13:32:04.418Z,74.08
2023-01-06T13:34:45.264Z,73.68
2023-01-06T13:37:34.961Z,73.39
2023-01-06T13:40:19.761Z,73.51
2023-01-06T13:42:58.092Z,73.29
2023-01-06T13:45:34.092Z,73.82
2023-01-06T13:48:08.371Z,73.88
2023-01-06T13:50:38.031Z,74.21
2023-01-06T13:53:06.735Z,74.22
2023-01-06T13:55:39.042Z,74.45
2023-01-06T13:58:26.646Z,74.70
2023-01-06T14:01:08.686Z,74.03
2023-01-06T14:03:37.725Z,73.97
2023-01-06T14:06:05.233Z,73.97
2023-01-06T14:08:36.840Z,74.08
2023-01-06T14:11:19.177Z,73.71
2023-01-06T14:13:52.800Z,74.24
2023-01-06T14:16:20.424Z,74.65
2023-01-06T14:18:52.203Z,74.67
2023-01-06T14:21:28.365Z,74.81
2023-01-06T14:24:18.377Z,75.35
2023-01-06T14:26:50.832Z,74.66
2023-01-06T14:29:39.555Z,74.96
2023-01-06T14:32:07.254Z,74.93
2023-01-06T14:34:36.803Z,75.27
2023-01-06T14:37:05.563Z,75.39
2023-01-06T14:39:34.995Z,75.66
2023-01-06T14:42:06.750Z,75.35
2023-01-06T14:44:49.183Z,74.98
2023-01-06T14:47:49.535Z,75.79
2023-01-06T14:50:22.274Z,75.63
2023-01-06T14:53:18.172Z,75.92
2023-01-06T14:55:48.170Z,75.40
2023-01-06T14:58:32.914Z,75.95
2023-01-06T15:01:03.885Z,76.63
2023-01-06T15:03:31.951Z,76.38
2023-01-06T15:06:13.628Z,77.09
2023-01-06T15:08:40.673Z,78.17
2023-01-06T15:11:20.577Z,77.07
2023-01-06T15:13:47.480Z,77.08
2023-01-06T15:16:34.590Z,75.94
2023-01-06T15:19:02.717Z,74.91
2023-01-06T15:21:41.777Z,74.92
2023-01-06T15:24:27.905Z,75.94
2023-01-06T15:27:04.473Z,76.05
2023-01-06T15:29:31.339Z,75.20
2023-01-06T15:31:58.832Z,76.25
2023-01-06T15:34:33.614Z,76.95
2023-01-06T15:37:04.575Z,76.45
2023-01-06T15:39:34.892Z,76.18
2023-01-06T15:42:06.080Z,77.55
2023-01-06T15:44:35.709Z,78.33
2023-01-06T15:47:28.512Z,78.75
2023-01-06T15:50:02.145Z,79.40
2023-01-06T15:52:37.384Z,79.92
2023-01-06T15:55:18.237Z,79.43
2023-01-06T15:57:53.728Z,80.38
2023-01-06T16:00:28.361Z,79.26
2023-01-06T16:02:55.813Z,79.00
2023-01-06T16:05:43.248Z,79.21
2023-01-06T16:08:25.055Z,80.07
2023-01-06T16:11:17.596Z,80.80
2023-01-06T16:13:56.219Z,80.69
2023-01-06T16:16:26.357Z,81.51
2023-01-06T16:18:54.994Z,80.61
2023-01-06T16:21:26.465Z,80.26
2023-01-06T16:24:04.932Z,80.84
2023-01-06T16:26:36.737Z,80.79
2023-01-06T16:29:24.977Z,80.35
2023-01-06T16:31:51.635Z,80.37
2023-01-06T16:34:21.428Z,81.24
2023-01-06T16:36:53.693Z,81.56
2023-01-06T16:39:20.402Z,81.20
2023-01-06T16:41:58.920Z,81.09
2023-01-06T16:44:26.798Z,81.16
2023-01-06T16:46:53.512Z,81.55
2023-01-06T16:49:21.655Z,81.62
2023-01-06T16:51:48.838Z,80.92
2023-01-06T16:54:19.767Z,80.93
2023-01-06T16:56:46.995Z,81.01
2023-01-06T16:59:19.129Z,81.06
2023-01-06T17:01:47.749Z,81.13
2023-01-06T17:04:15.467Z,81.29
2023-01-06T17:06:43.963Z,81.43
2023-01-06T17:09:13.750Z,81.92
2023-01-06T17:11:40.512Z,81.56
2023-01-06T17:14:15.317Z,81.86
2023-01-06T17:16:45.021Z,81.22
2023-01-06T17:19:26.714Z,80.47
2023-01-06T17:22:04.523Z,80.93
2023-01-06T17:24:31.418Z,82.16
2023-01-06T17:27:20.533Z,81.37
2023-01-06T17:29:47.821Z,82.06
2023-01-06T17:32:19.622Z,82.10
2023-01-06T17:34:50.068Z,81.39
2023-01-06T17:37:25.916Z,81.95
2023-01-06T17:39:53.120Z,80.89
2023-01-06T17:42:40.164Z,81.15
2023-01-06T17:45:49.189Z,80.55
2023-01-06T17:48:36.441Z,81.07
2023-01-06T17:51:04.545Z,79.75
2023-01-06T17:53:55.469Z,80.50
2023-01-06T17:56:26.117Z,80.94
2023-01-06T17:58:52.891Z,81.72
2023-01-06T18:01:23.759Z,80.09
2023-01-06T18:03:52.236Z,80.29
2023-01-06T18:06:22.968Z,80.68
2023-01-06T18:09:07.883Z,80.61
2023-01-06T18:11:37.270Z,80.93
2023-01-06T18:14:36.377Z,81.21
2023-01-06T18:17:19.911Z,80.99
2023-01-06T18:19:46.832Z,81.52
2023-01-06T18:22:19.814Z,82.26
2023-01-06T18:24:48.392Z,82.60
2023-01-06T18:27:27.175Z,82.30
2023-01-06T18:30:00.118Z,81.81
2023-01-06T18:32:32.115Z,81.98
2023-01-06T18:35:05.141Z,82.38
2023-01-06T18:37:35.945Z,82.25
2023-01-06T18:40:07.163Z,82.50
2023-01-06T18:42:45.100Z,82.99
2023-01-06T18:45:11.646Z,83.26
2023-01-06T18:47:41.107Z,83.95
2023-01-06T18:50:28.308Z,82.91
2023-01-06T18:53:06.917Z,82.76
2023-01-06T18:55:42.806Z,82.35
2023-01-06T18:58:36.326Z,82.64
2023-01-06T19:01:29.528Z,83.41
2023-01-06T19:04:02.894Z,83.91
2023-01-06T19:06:42.203Z,83.56
2023-01-06T19:09:18.777Z,81.55
2023-01-06T19:11:47.297Z,81.91
2023-01-06T19:14:18.383Z,83.73
2023-01-06T19:16:51.891Z,83.44
2023-01-06T19:19:41.576Z,81.97
2023-01-06T19:22:14.649Z,82.09
2023-01-06T19:24:48.361Z,82.42
2023-01-06T19:27:31.782Z,82.64
2023-01-06T19:30:28.770Z,80.95
2023-01-06T19:33:23.915Z,80.78
2023-01-06T19:36:06.605Z,81.29
2023-01-06T19:38:41.778Z,81.08
2023-01-06T19:41:26.909Z,81.85
2023-01-06T19:44:15.068Z,81.77
2023-01-06T19:46:44.562Z,83.00
2023-01-06T19:49:11.267Z,83.56
2023-01-06T19:51:38.065Z,82.49
2023-01-06T19:54:35.418Z,81.99
2023-01-06T19:57:21.699Z,82.90
2023-01-06T19:59:48.837Z,80.82
2023-01-06T20:02:29.161Z,80.40
2023-01-06T20:04:57.229Z,80.23
2023-01-06T20:07:28.231Z,80.70
2023-01-06T20:09:56.054Z,80.39
2023-01-06T20:12:23.095Z,81.16
2023-01-06T20:14:49.871Z,80.24
2023-01-06T20:17:16.757Z,80.30
2023-01-06T20:19:43.440Z,79.90
2023-01-06T20:22:10.101Z,78.63
2023-01-06T20:24:36.903Z,79.36
2023-01-06T20:27:03.868Z,79.25
2023-01-06T20:29:32.935Z,79.13
2023-01-06T20:32:00.009Z,80.19
2023-01-06T20:34:26.737Z,81.23
2023-01-06T20:36:53.543Z,81.36
2023-01-06T20:39:20.586Z,80.36
2023-01-06T20:41:47.324Z,80.23
2023-01-06T20:44:14.184Z,81.09
2023-01-06T20:46:40.886Z,79.65
2023-01-06T20:49:07.547Z,80.07
2023-01-06T20:51:34.179Z,79.95
2023-01-06T20:54:00.831Z,80.66
2023-01-06T20:56:27.500Z,80.81
2023-01-06T20:58:57.155Z,81.08
2023-01-06T21:01:23.867Z,80.63
2023-01-06T21:03:51.815Z,79.71
2023-01-06T21:06:18.600Z,79.32
2023-01-06T21:08:45.195Z,79.70
2023-01-06T21:11:11.961Z,78.28
2023-01-06T21:13:38.660Z,78.90
2023-01-06T21:16:06.124Z,79.04
2023-01-06T21:18:35.490Z,79.63
2023-01-06T21:21:02.187Z,79.16
2023-01-06T21:23:28.869Z,79.34
2023-01-06T21:25:55.523Z,78.72
2023-01-06T21:28:22.184Z,79.19
2023-01-06T21:30:48.879Z,79.15
2023-01-06T21:33:16.625Z,79.99
2023-01-06T21:35:43.296Z,79.72
2023-01-06T21:38:10.001Z,81.00
2023-01-06T21:40:37.070Z,80.99
2023-01-06T21:43:09.789Z,80.52
2023-01-06T21:45:38.478Z,79.30
2023-01-06T21:48:06.878Z,80.00
2023-01-06T21:50:37.324Z,78.77
2023-01-06T21:53:04.491Z,80.11
2023-01-06T21:55:31.245Z,79.23
2023-01-06T21:58:04.532Z,79.38
2023-01-06T22:00:36.924Z,79.59
2023-01-06T22:03:05.028Z,78.24
2023-01-06T22:05:31.818Z,79.44
2023-01-06T22:07:58.564Z,79.05
2023-01-06T22:10:28.355Z,78.27
2023-01-06T22:12:56.793Z,77.73
2023-01-06T22:15:23.990Z,78.82
2023-01-06T22:17:55.942Z,78.66
2023-01-06T22:20:22.883Z,78.63
2023-01-06T22:22:53.217Z,79.63
2023-01-06T22:25:29.574Z,78.63
2023-01-06T22:27:59.458Z,78.76
2023-01-06T22:30:27.575Z,78.23
2023-01-06T22:32:54.532Z,78.21
2023-01-06T22:35:25.020Z,78.46
2023-01-06T22:37:52.010Z,78.26
2023-01-06T22:40:19.122Z,78.92
2023-01-06T22:42:46.477Z,78.52
2023-01-06T22:45:13.882Z,77.66
2023-01-06T22:47:41.168Z,78.24
2023-01-06T22:50:08.908Z,78.69
2023-01-06T22:52:36.121Z,78.04
2023-01-06T22:55:04.018Z,76.98
2023-01-06T22:57:30.852Z,77.23
2023-01-06T23:00:07.655Z,77.89
2023-01-06T23:02:35.234Z,78.43
2023-01-06T23:05:02.807Z,79.06
2023-01-06T23:07:30.712Z,77.42
2023-01-06T23:09:57.350Z,76.65
2023-01-06T23:12:24.391Z,78.01
2023-01-06T23:14:51.063Z,78.56
2023-01-06T23:17:17.735Z,78.24
2023-01-06T23:19:44.571Z,77.41
2023-01-06T23:22:15.054Z,77.22
2023-01-06T23:24:41.674Z,76.74
2023-01-06T23:27:08.627Z,77.33
2023-01-06T23:29:35.336Z,77.19
2023-01-06T23:32:04.378Z,78.02
2023-01-06T23:34:49.320Z,77.54
2023-01-06T23:37:16.349Z,78.16
2023-01-06T23:39:43.410Z,78.14
2023-01-06T23:42:10.181Z,77.61
2023-01-06T23:44:36.834Z,77.44
2023-01-06T23:47:03.541Z,77.27
2023-01-06T23:49:30.213Z,75.81
2023-01-06T23:51:57.026Z,75.82
2023-01-06T23:54:23.649Z,75.63
2023-01-06T23:56:50.351Z,75.88
2023-01-06T23:59:17.251Z,76.59
